<?xml version="1.0" encoding="UTF-8" standalone="no" ?>
<gpx xmlns="http://www.topografix.com/GPX/1/1" xmlns:xsi="http://www.w3.org/2001/XMLSchema-instance" xsi:schemaLocation="http://www.topografix.com/GPX/1/1 http://www.topografix.com/GPX/1/1/gpx.xsd" version="1.1" creator="VisuGPX - https://www.visugpx.com">
  <metadata>
    <name>Sabotier</name>
    <desc><![CDATA[Sabotier ]]></desc>
  </metadata>
  <wpt lat="47.85818" lon="-2.99672">
    <ele>137.959747</ele>
    <name><![CDATA[Cidrerie]]></name>
  </wpt>
  <wpt lat="47.84869" lon="-2.93688">
    <ele>138.352524</ele>
    <name><![CDATA[Pique nique]]></name>
  </wpt>
  <wpt lat="47.83599" lon="-3.0005">
    <ele>177.413528</ele>
    <name><![CDATA[Arrivee]]></name>
    <desc><![CDATA[Sabotier]]></desc>
  </wpt>
  <trk>
    <name><![CDATA[Sabotier]]></name>
    <cmt><![CDATA[Course (1,0 m | 5 s | 100,0 m)]]></cmt>
    <desc><![CDATA[Mate katell]]></desc>
    <trkseg>
      <trkpt lat="47.83598" lon="-3.00058">
        <ele>135.828735</ele>
        <time>2020-03-01T17:00:38.092Z</time>
      </trkpt>
      <trkpt lat="47.83594" lon="-3.00054">
        <ele>136.563278</ele>
        <time>2020-03-01T17:00:45.577Z</time>
      </trkpt>
      <trkpt lat="47.83599" lon="-3.00049">
        <ele>136.523651</ele>
        <time>2020-03-01T17:00:50.594Z</time>
      </trkpt>
      <trkpt lat="47.83607" lon="-3.00072">
        <ele>136.362473</ele>
        <time>2020-03-01T17:00:57.580Z</time>
      </trkpt>
      <trkpt lat="47.83608" lon="-3.00078">
        <ele>136.571213</ele>
        <time>2020-03-01T17:01:08.589Z</time>
      </trkpt>
      <trkpt lat="47.8362" lon="-3.00079">
        <ele>137.281982</ele>
        <time>2020-03-01T17:01:15.571Z</time>
      </trkpt>
      <trkpt lat="47.83681" lon="-3.00064">
        <ele>139.823853</ele>
        <time>2020-03-01T17:01:22.585Z</time>
      </trkpt>
      <trkpt lat="47.83751" lon="-3.00044">
        <ele>141.19783</ele>
        <time>2020-03-01T17:01:28.565Z</time>
      </trkpt>
      <trkpt lat="47.83769" lon="-3.00016">
        <ele>141.588882</ele>
        <time>2020-03-01T17:01:33.586Z</time>
      </trkpt>
      <trkpt lat="47.83773" lon="-2.99956">
        <ele>141.731567</ele>
        <time>2020-03-01T17:01:38.587Z</time>
      </trkpt>
      <trkpt lat="47.83779" lon="-2.99872">
        <ele>141.773849</ele>
        <time>2020-03-01T17:01:44.585Z</time>
      </trkpt>
      <trkpt lat="47.83786" lon="-2.9979">
        <ele>140.796204</ele>
        <time>2020-03-01T17:01:50.568Z</time>
      </trkpt>
      <trkpt lat="47.83791" lon="-2.99729">
        <ele>139.192352</ele>
        <time>2020-03-01T17:01:55.596Z</time>
      </trkpt>
      <trkpt lat="47.83798" lon="-2.99704">
        <ele>137.794586</ele>
        <time>2020-03-01T17:02:11.597Z</time>
      </trkpt>
      <trkpt lat="47.83836" lon="-2.99719">
        <ele>137.091736</ele>
        <time>2020-03-01T17:02:18.588Z</time>
      </trkpt>
      <trkpt lat="47.83903" lon="-2.99749">
        <ele>133.112473</ele>
        <time>2020-03-01T17:02:26.573Z</time>
      </trkpt>
      <trkpt lat="47.83956" lon="-2.99755">
        <ele>132.251099</ele>
        <time>2020-03-01T17:02:31.586Z</time>
      </trkpt>
      <trkpt lat="47.84005" lon="-2.99763">
        <ele>132.716141</ele>
        <time>2020-03-01T17:02:36.596Z</time>
      </trkpt>
      <trkpt lat="47.84048" lon="-2.99792">
        <ele>133.041138</ele>
        <time>2020-03-01T17:02:43.555Z</time>
      </trkpt>
      <trkpt lat="47.84086" lon="-2.9981">
        <ele>133.265732</ele>
        <time>2020-03-01T17:02:50.601Z</time>
      </trkpt>
      <trkpt lat="47.84119" lon="-2.99819">
        <ele>133.175888</ele>
        <time>2020-03-01T17:02:56.570Z</time>
      </trkpt>
      <trkpt lat="47.84151" lon="-2.99825">
        <ele>133.85231</ele>
        <time>2020-03-01T17:03:01.602Z</time>
      </trkpt>
      <trkpt lat="47.84193" lon="-2.99831">
        <ele>132.990936</ele>
        <time>2020-03-01T17:03:07.562Z</time>
      </trkpt>
      <trkpt lat="47.84217" lon="-2.99833">
        <ele>132.09256</ele>
        <time>2020-03-01T17:03:12.612Z</time>
      </trkpt>
      <trkpt lat="47.84204" lon="-2.99808">
        <ele>132.451904</ele>
        <time>2020-03-01T17:03:18.573Z</time>
      </trkpt>
      <trkpt lat="47.84181" lon="-2.99772">
        <ele>132.562881</ele>
        <time>2020-03-01T17:03:24.565Z</time>
      </trkpt>
      <trkpt lat="47.84186" lon="-2.99719">
        <ele>131.786057</ele>
        <time>2020-03-01T17:03:29.575Z</time>
      </trkpt>
      <trkpt lat="47.84191" lon="-2.99665">
        <ele>128.929749</ele>
        <time>2020-03-01T17:03:34.591Z</time>
      </trkpt>
      <trkpt lat="47.84222" lon="-2.99659">
        <ele>126.850288</ele>
        <time>2020-03-01T17:03:41.594Z</time>
      </trkpt>
      <trkpt lat="47.84292" lon="-2.99691">
        <ele>123.732399</ele>
        <time>2020-03-01T17:03:49.564Z</time>
      </trkpt>
      <trkpt lat="47.84336" lon="-2.99721">
        <ele>121.5261</ele>
        <time>2020-03-01T17:03:54.583Z</time>
      </trkpt>
      <trkpt lat="47.84381" lon="-2.9974">
        <ele>122.046631</ele>
        <time>2020-03-01T17:03:59.612Z</time>
      </trkpt>
      <trkpt lat="47.84448" lon="-2.99762">
        <ele>124.828949</ele>
        <time>2020-03-01T17:04:07.579Z</time>
      </trkpt>
      <trkpt lat="47.84499" lon="-2.99759">
        <ele>126.052322</ele>
        <time>2020-03-01T17:04:14.556Z</time>
      </trkpt>
      <trkpt lat="47.845" lon="-2.99758">
        <ele>126.755165</ele>
        <time>2020-03-01T17:04:27.576Z</time>
      </trkpt>
      <trkpt lat="47.84517" lon="-2.99758">
        <ele>127.701096</ele>
        <time>2020-03-01T17:04:32.603Z</time>
      </trkpt>
      <trkpt lat="47.84575" lon="-2.9975">
        <ele>128.710449</ele>
        <time>2020-03-01T17:04:39.637Z</time>
      </trkpt>
      <trkpt lat="47.84632" lon="-2.99756">
        <ele>129.33931</ele>
        <time>2020-03-01T17:04:45.560Z</time>
      </trkpt>
      <trkpt lat="47.84677" lon="-2.99764">
        <ele>130.121414</ele>
        <time>2020-03-01T17:04:50.563Z</time>
      </trkpt>
      <trkpt lat="47.84708" lon="-2.9977">
        <ele>129.122635</ele>
        <time>2020-03-01T17:04:55.572Z</time>
      </trkpt>
      <trkpt lat="47.84715" lon="-2.99774">
        <ele>129.873047</ele>
        <time>2020-03-01T17:05:00.579Z</time>
      </trkpt>
      <trkpt lat="47.84729" lon="-2.99836">
        <ele>130.229752</ele>
        <time>2020-03-01T17:05:07.560Z</time>
      </trkpt>
      <trkpt lat="47.84739" lon="-2.99889">
        <ele>131.162476</ele>
        <time>2020-03-01T17:05:12.571Z</time>
      </trkpt>
      <trkpt lat="47.84756" lon="-2.99921">
        <ele>131.709427</ele>
        <time>2020-03-01T17:05:17.595Z</time>
      </trkpt>
      <trkpt lat="47.84793" lon="-2.99946">
        <ele>131.936661</ele>
        <time>2020-03-01T17:05:23.587Z</time>
      </trkpt>
      <trkpt lat="47.84809" lon="-2.99968">
        <ele>132.174469</ele>
        <time>2020-03-01T17:05:30.577Z</time>
      </trkpt>
      <trkpt lat="47.84817" lon="-2.99985">
        <ele>132.335648</ele>
        <time>2020-03-01T17:05:35.602Z</time>
      </trkpt>
      <trkpt lat="47.84848" lon="-2.9999">
        <ele>131.128128</ele>
        <time>2020-03-01T17:05:43.565Z</time>
      </trkpt>
      <trkpt lat="47.84871" lon="-2.9998">
        <ele>131.220612</ele>
        <time>2020-03-01T17:05:48.571Z</time>
      </trkpt>
      <trkpt lat="47.84923" lon="-2.99985">
        <ele>129.97345</ele>
        <time>2020-03-01T17:05:55.562Z</time>
      </trkpt>
      <trkpt lat="47.8499" lon="-2.99996">
        <ele>126.031181</ele>
        <time>2020-03-01T17:06:03.583Z</time>
      </trkpt>
      <trkpt lat="47.85039" lon="-3.00007">
        <ele>121.935654</ele>
        <time>2020-03-01T17:06:09.570Z</time>
      </trkpt>
      <trkpt lat="47.85093" lon="-3.00017">
        <ele>118.146637</ele>
        <time>2020-03-01T17:06:15.584Z</time>
      </trkpt>
      <trkpt lat="47.85131" lon="-3.0002">
        <ele>115.91127</ele>
        <time>2020-03-01T17:06:21.580Z</time>
      </trkpt>
      <trkpt lat="47.85139" lon="-3.00026">
        <ele>116.518997</ele>
        <time>2020-03-01T17:06:28.614Z</time>
      </trkpt>
      <trkpt lat="47.85184" lon="-3.00043">
        <ele>117.972244</ele>
        <time>2020-03-01T17:06:36.534Z</time>
      </trkpt>
      <trkpt lat="47.85226" lon="-3.00049">
        <ele>118.746429</ele>
        <time>2020-03-01T17:06:41.581Z</time>
      </trkpt>
      <trkpt lat="47.85279" lon="-3.00038">
        <ele>118.812485</ele>
        <time>2020-03-01T17:06:47.570Z</time>
      </trkpt>
      <trkpt lat="47.85327" lon="-3.00027">
        <ele>116.976105</ele>
        <time>2020-03-01T17:06:53.574Z</time>
      </trkpt>
      <trkpt lat="47.85373" lon="-3.00015">
        <ele>115.41452</ele>
        <time>2020-03-01T17:06:59.583Z</time>
      </trkpt>
      <trkpt lat="47.85424" lon="-2.99983">
        <ele>112.518593</ele>
        <time>2020-03-01T17:07:07.572Z</time>
      </trkpt>
      <trkpt lat="47.85456" lon="-2.99917">
        <ele>108.639732</ele>
        <time>2020-03-01T17:07:14.542Z</time>
      </trkpt>
      <trkpt lat="47.85469" lon="-2.99856">
        <ele>105.949898</ele>
        <time>2020-03-01T17:07:19.552Z</time>
      </trkpt>
      <trkpt lat="47.85486" lon="-2.99772">
        <ele>103.58242</ele>
        <time>2020-03-01T17:07:26.561Z</time>
      </trkpt>
      <trkpt lat="47.85496" lon="-2.99709">
        <ele>101.648277</ele>
        <time>2020-03-01T17:07:32.537Z</time>
      </trkpt>
      <trkpt lat="47.85506" lon="-2.9967">
        <ele>100.09726</ele>
        <time>2020-03-01T17:07:37.541Z</time>
      </trkpt>
      <trkpt lat="47.85546" lon="-2.9966">
        <ele>95.499702</ele>
        <time>2020-03-01T17:07:43.581Z</time>
      </trkpt>
      <trkpt lat="47.85602" lon="-2.99662">
        <ele>89.91394</ele>
        <time>2020-03-01T17:07:49.570Z</time>
      </trkpt>
      <trkpt lat="47.85662" lon="-2.99666">
        <ele>84.299103</ele>
        <time>2020-03-01T17:07:55.538Z</time>
      </trkpt>
      <trkpt lat="47.85712" lon="-2.99668">
        <ele>81.474518</ele>
        <time>2020-03-01T17:08:00.547Z</time>
      </trkpt>
      <trkpt lat="47.8576" lon="-2.99672">
        <ele>79.762321</ele>
        <time>2020-03-01T17:08:05.581Z</time>
      </trkpt>
      <trkpt lat="47.85811" lon="-2.99673">
        <ele>78.488747</ele>
        <time>2020-03-01T17:08:12.536Z</time>
      </trkpt>
      <trkpt lat="47.85818" lon="-2.99672">
        <ele>78.2985</ele>
        <time>2020-03-01T17:08:56.788Z</time>
      </trkpt>
      <trkpt lat="47.85814" lon="-2.99673">
        <ele>78.90358</ele>
        <time>2020-03-01T17:09:02.551Z</time>
      </trkpt>
      <trkpt lat="47.85833" lon="-2.99679">
        <ele>77.809685</ele>
        <time>2020-03-01T17:09:12.336Z</time>
      </trkpt>
      <trkpt lat="47.85875" lon="-2.99673">
        <ele>75.204399</ele>
        <time>2020-03-01T17:09:22.921Z</time>
      </trkpt>
      <trkpt lat="47.85888" lon="-2.99663">
        <ele>73.225334</ele>
        <time>2020-03-01T17:09:28.011Z</time>
      </trkpt>
      <trkpt lat="47.85905" lon="-2.99644">
        <ele>70.210503</ele>
        <time>2020-03-01T17:09:33.204Z</time>
      </trkpt>
      <trkpt lat="47.85911" lon="-2.99604">
        <ele>65.86396</ele>
        <time>2020-03-01T17:09:38.549Z</time>
      </trkpt>
      <trkpt lat="47.85911" lon="-2.99569">
        <ele>64.006439</ele>
        <time>2020-03-01T17:09:45.610Z</time>
      </trkpt>
      <trkpt lat="47.85917" lon="-2.99556">
        <ele>63.031445</ele>
        <time>2020-03-01T17:09:53.493Z</time>
      </trkpt>
      <trkpt lat="47.85933" lon="-2.99497">
        <ele>60.560917</ele>
        <time>2020-03-01T17:09:59.898Z</time>
      </trkpt>
      <trkpt lat="47.85932" lon="-2.9948">
        <ele>58.909496</ele>
        <time>2020-03-01T17:10:05.031Z</time>
      </trkpt>
      <trkpt lat="47.85941" lon="-2.9941">
        <ele>55.46133</ele>
        <time>2020-03-01T17:10:10.296Z</time>
      </trkpt>
      <trkpt lat="47.85978" lon="-2.99368">
        <ele>53.775558</ele>
        <time>2020-03-01T17:10:15.561Z</time>
      </trkpt>
      <trkpt lat="47.86014" lon="-2.99375">
        <ele>52.433285</ele>
        <time>2020-03-01T17:10:21.564Z</time>
      </trkpt>
      <trkpt lat="47.86065" lon="-2.9939">
        <ele>51.093651</ele>
        <time>2020-03-01T17:10:28.542Z</time>
      </trkpt>
      <trkpt lat="47.86096" lon="-2.99396">
        <ele>50.216415</ele>
        <time>2020-03-01T17:10:33.642Z</time>
      </trkpt>
      <trkpt lat="47.86105" lon="-2.99387">
        <ele>50.205845</ele>
        <time>2020-03-01T17:10:41.223Z</time>
      </trkpt>
      <trkpt lat="47.86109" lon="-2.99343">
        <ele>50.237553</ele>
        <time>2020-03-01T17:10:46.556Z</time>
      </trkpt>
      <trkpt lat="47.86111" lon="-2.99289">
        <ele>50.248123</ele>
        <time>2020-03-01T17:10:51.564Z</time>
      </trkpt>
      <trkpt lat="47.86114" lon="-2.9922">
        <ele>50.409302</ele>
        <time>2020-03-01T17:10:59.583Z</time>
      </trkpt>
      <trkpt lat="47.86117" lon="-2.99162">
        <ele>50.398731</ele>
        <time>2020-03-01T17:11:05.548Z</time>
      </trkpt>
      <trkpt lat="47.8612" lon="-2.99102">
        <ele>50.303612</ele>
        <time>2020-03-01T17:11:10.557Z</time>
      </trkpt>
      <trkpt lat="47.86123" lon="-2.99035">
        <ele>50.446293</ele>
        <time>2020-03-01T17:11:15.600Z</time>
      </trkpt>
      <trkpt lat="47.86126" lon="-2.98944">
        <ele>50.472717</ele>
        <time>2020-03-01T17:11:21.568Z</time>
      </trkpt>
      <trkpt lat="47.86131" lon="-2.98848">
        <ele>51.334099</ele>
        <time>2020-03-01T17:11:27.578Z</time>
      </trkpt>
      <trkpt lat="47.86137" lon="-2.98746">
        <ele>51.003815</ele>
        <time>2020-03-01T17:11:33.600Z</time>
      </trkpt>
      <trkpt lat="47.86141" lon="-2.98635">
        <ele>51.437145</ele>
        <time>2020-03-01T17:11:39.566Z</time>
      </trkpt>
      <trkpt lat="47.86146" lon="-2.98541">
        <ele>51.167633</ele>
        <time>2020-03-01T17:11:44.570Z</time>
      </trkpt>
      <trkpt lat="47.8615" lon="-2.98451">
        <ele>51.252186</ele>
        <time>2020-03-01T17:11:49.571Z</time>
      </trkpt>
      <trkpt lat="47.86145" lon="-2.98368">
        <ele>51.524342</ele>
        <time>2020-03-01T17:11:54.575Z</time>
      </trkpt>
      <trkpt lat="47.86124" lon="-2.98296">
        <ele>52.459705</ele>
        <time>2020-03-01T17:11:59.593Z</time>
      </trkpt>
      <trkpt lat="47.8609" lon="-2.9822">
        <ele>52.483486</ele>
        <time>2020-03-01T17:12:05.574Z</time>
      </trkpt>
      <trkpt lat="47.86059" lon="-2.98152">
        <ele>52.533691</ele>
        <time>2020-03-01T17:12:12.577Z</time>
      </trkpt>
      <trkpt lat="47.86019" lon="-2.98057">
        <ele>54.068851</ele>
        <time>2020-03-01T17:12:19.568Z</time>
      </trkpt>
      <trkpt lat="47.85992" lon="-2.97995">
        <ele>54.565598</ele>
        <time>2020-03-01T17:12:24.582Z</time>
      </trkpt>
      <trkpt lat="47.85975" lon="-2.97953">
        <ele>54.697712</ele>
        <time>2020-03-01T17:12:29.633Z</time>
      </trkpt>
      <trkpt lat="47.86008" lon="-2.97929">
        <ele>54.763767</ele>
        <time>2020-03-01T17:12:36.583Z</time>
      </trkpt>
      <trkpt lat="47.86057" lon="-2.97897">
        <ele>52.829624</ele>
        <time>2020-03-01T17:12:42.572Z</time>
      </trkpt>
      <trkpt lat="47.86097" lon="-2.97868">
        <ele>53.400356</ele>
        <time>2020-03-01T17:12:47.595Z</time>
      </trkpt>
      <trkpt lat="47.86156" lon="-2.97866">
        <ele>54.425556</ele>
        <time>2020-03-01T17:12:53.585Z</time>
      </trkpt>
      <trkpt lat="47.8619" lon="-2.97855">
        <ele>55.907875</ele>
        <time>2020-03-01T17:12:59.562Z</time>
      </trkpt>
      <trkpt lat="47.86195" lon="-2.97837">
        <ele>56.354416</ele>
        <time>2020-03-01T17:13:04.612Z</time>
      </trkpt>
      <trkpt lat="47.86209" lon="-2.97762">
        <ele>54.821899</ele>
        <time>2020-03-01T17:13:10.572Z</time>
      </trkpt>
      <trkpt lat="47.86233" lon="-2.97682">
        <ele>53.907673</ele>
        <time>2020-03-01T17:13:15.594Z</time>
      </trkpt>
      <trkpt lat="47.8626" lon="-2.97595">
        <ele>53.971088</ele>
        <time>2020-03-01T17:13:20.595Z</time>
      </trkpt>
      <trkpt lat="47.8627" lon="-2.97498">
        <ele>53.94202</ele>
        <time>2020-03-01T17:13:25.599Z</time>
      </trkpt>
      <trkpt lat="47.86236" lon="-2.97388">
        <ele>55.064987</ele>
        <time>2020-03-01T17:13:31.585Z</time>
      </trkpt>
      <trkpt lat="47.86192" lon="-2.97284">
        <ele>56.166817</ele>
        <time>2020-03-01T17:13:37.587Z</time>
      </trkpt>
      <trkpt lat="47.8617" lon="-2.97188">
        <ele>58.740391</ele>
        <time>2020-03-01T17:13:42.608Z</time>
      </trkpt>
      <trkpt lat="47.86158" lon="-2.97068">
        <ele>62.452785</ele>
        <time>2020-03-01T17:13:48.597Z</time>
      </trkpt>
      <trkpt lat="47.86141" lon="-2.96935">
        <ele>66.276154</ele>
        <time>2020-03-01T17:13:54.605Z</time>
      </trkpt>
      <trkpt lat="47.86126" lon="-2.96803">
        <ele>68.90786</ele>
        <time>2020-03-01T17:14:00.551Z</time>
      </trkpt>
      <trkpt lat="47.8614" lon="-2.96696">
        <ele>71.127373</ele>
        <time>2020-03-01T17:14:05.555Z</time>
      </trkpt>
      <trkpt lat="47.8618" lon="-2.9661">
        <ele>72.36924</ele>
        <time>2020-03-01T17:14:10.555Z</time>
      </trkpt>
      <trkpt lat="47.86206" lon="-2.96561">
        <ele>73.669235</ele>
        <time>2020-03-01T17:14:15.582Z</time>
      </trkpt>
      <trkpt lat="47.86179" lon="-2.96538">
        <ele>73.537125</ele>
        <time>2020-03-01T17:14:20.593Z</time>
      </trkpt>
      <trkpt lat="47.86126" lon="-2.96552">
        <ele>72.073303</ele>
        <time>2020-03-01T17:14:25.624Z</time>
      </trkpt>
      <trkpt lat="47.86072" lon="-2.96564">
        <ele>68.070259</ele>
        <time>2020-03-01T17:14:31.604Z</time>
      </trkpt>
      <trkpt lat="47.86037" lon="-2.96561">
        <ele>65.245667</ele>
        <time>2020-03-01T17:14:36.605Z</time>
      </trkpt>
      <trkpt lat="47.86014" lon="-2.96513">
        <ele>65.195465</ele>
        <time>2020-03-01T17:14:41.628Z</time>
      </trkpt>
      <trkpt lat="47.86011" lon="-2.96409">
        <ele>67.06884</ele>
        <time>2020-03-01T17:14:48.610Z</time>
      </trkpt>
      <trkpt lat="47.86013" lon="-2.96289">
        <ele>67.631645</ele>
        <time>2020-03-01T17:14:56.608Z</time>
      </trkpt>
      <trkpt lat="47.86023" lon="-2.9621">
        <ele>65.560097</ele>
        <time>2020-03-01T17:15:02.581Z</time>
      </trkpt>
      <trkpt lat="47.86012" lon="-2.96133">
        <ele>62.635101</ele>
        <time>2020-03-01T17:15:08.528Z</time>
      </trkpt>
      <trkpt lat="47.8599" lon="-2.9607">
        <ele>60.357464</ele>
        <time>2020-03-01T17:15:13.621Z</time>
      </trkpt>
      <trkpt lat="47.85969" lon="-2.95975">
        <ele>58.193439</ele>
        <time>2020-03-01T17:15:19.595Z</time>
      </trkpt>
      <trkpt lat="47.85953" lon="-2.95871">
        <ele>57.242222</ele>
        <time>2020-03-01T17:15:25.573Z</time>
      </trkpt>
      <trkpt lat="47.8594" lon="-2.95787">
        <ele>58.256855</ele>
        <time>2020-03-01T17:15:30.598Z</time>
      </trkpt>
      <trkpt lat="47.85926" lon="-2.95688">
        <ele>59.976974</ele>
        <time>2020-03-01T17:15:36.550Z</time>
      </trkpt>
      <trkpt lat="47.85915" lon="-2.95602">
        <ele>61.073521</ele>
        <time>2020-03-01T17:15:41.569Z</time>
      </trkpt>
      <trkpt lat="47.85903" lon="-2.95517">
        <ele>61.752583</ele>
        <time>2020-03-01T17:15:46.598Z</time>
      </trkpt>
      <trkpt lat="47.85884" lon="-2.95438">
        <ele>60.97047</ele>
        <time>2020-03-01T17:15:52.569Z</time>
      </trkpt>
      <trkpt lat="47.85898" lon="-2.95375">
        <ele>60.534496</ele>
        <time>2020-03-01T17:15:58.555Z</time>
      </trkpt>
      <trkpt lat="47.85935" lon="-2.95289">
        <ele>60.222706</ele>
        <time>2020-03-01T17:16:04.584Z</time>
      </trkpt>
      <trkpt lat="47.85974" lon="-2.95194">
        <ele>59.274132</ele>
        <time>2020-03-01T17:16:10.610Z</time>
      </trkpt>
      <trkpt lat="47.86007" lon="-2.95106">
        <ele>59.881855</ele>
        <time>2020-03-01T17:16:16.567Z</time>
      </trkpt>
      <trkpt lat="47.86028" lon="-2.95029">
        <ele>61.14222</ele>
        <time>2020-03-01T17:16:21.621Z</time>
      </trkpt>
      <trkpt lat="47.86051" lon="-2.94937">
        <ele>61.855633</ele>
        <time>2020-03-01T17:16:27.559Z</time>
      </trkpt>
      <trkpt lat="47.86073" lon="-2.94844">
        <ele>61.97982</ele>
        <time>2020-03-01T17:16:33.556Z</time>
      </trkpt>
      <trkpt lat="47.86088" lon="-2.94752">
        <ele>62.117218</ele>
        <time>2020-03-01T17:16:39.544Z</time>
      </trkpt>
      <trkpt lat="47.86093" lon="-2.94677">
        <ele>61.97982</ele>
        <time>2020-03-01T17:16:44.549Z</time>
      </trkpt>
      <trkpt lat="47.86097" lon="-2.94608">
        <ele>62.07494</ele>
        <time>2020-03-01T17:16:49.645Z</time>
      </trkpt>
      <trkpt lat="47.86102" lon="-2.94557">
        <ele>62.965385</ele>
        <time>2020-03-01T17:16:55.577Z</time>
      </trkpt>
      <trkpt lat="47.86098" lon="-2.94551">
        <ele>63.182053</ele>
        <time>2020-03-01T17:17:01.563Z</time>
      </trkpt>
      <trkpt lat="47.86076" lon="-2.94571">
        <ele>62.785713</ele>
        <time>2020-03-01T17:17:07.576Z</time>
      </trkpt>
      <trkpt lat="47.86044" lon="-2.94619">
        <ele>62.484493</ele>
        <time>2020-03-01T17:17:12.581Z</time>
      </trkpt>
      <trkpt lat="47.86029" lon="-2.94701">
        <ele>64.394859</ele>
        <time>2020-03-01T17:17:18.564Z</time>
      </trkpt>
      <trkpt lat="47.85997" lon="-2.94779">
        <ele>65.523109</ele>
        <time>2020-03-01T17:17:24.572Z</time>
      </trkpt>
      <trkpt lat="47.8595" lon="-2.94832">
        <ele>65.945869</ele>
        <time>2020-03-01T17:17:30.545Z</time>
      </trkpt>
      <trkpt lat="47.85902" lon="-2.94834">
        <ele>65.317009</ele>
        <time>2020-03-01T17:17:35.558Z</time>
      </trkpt>
      <trkpt lat="47.85851" lon="-2.94827">
        <ele>63.538761</ele>
        <time>2020-03-01T17:17:40.713Z</time>
      </trkpt>
      <trkpt lat="47.85764" lon="-2.94816">
        <ele>64.624733</ele>
        <time>2020-03-01T17:17:48.707Z</time>
      </trkpt>
      <trkpt lat="47.85708" lon="-2.94766">
        <ele>66.88652</ele>
        <time>2020-03-01T17:17:54.683Z</time>
      </trkpt>
      <trkpt lat="47.85664" lon="-2.94708">
        <ele>69.610703</ele>
        <time>2020-03-01T17:17:59.704Z</time>
      </trkpt>
      <trkpt lat="47.85634" lon="-2.94621">
        <ele>73.164566</ele>
        <time>2020-03-01T17:18:05.691Z</time>
      </trkpt>
      <trkpt lat="47.85605" lon="-2.94529">
        <ele>75.185905</ele>
        <time>2020-03-01T17:18:11.713Z</time>
      </trkpt>
      <trkpt lat="47.85557" lon="-2.94473">
        <ele>76.229599</ele>
        <time>2020-03-01T17:18:17.693Z</time>
      </trkpt>
      <trkpt lat="47.85517" lon="-2.9446">
        <ele>75.714355</ele>
        <time>2020-03-01T17:18:22.693Z</time>
      </trkpt>
      <trkpt lat="47.85497" lon="-2.94473">
        <ele>76.789764</ele>
        <time>2020-03-01T17:18:27.707Z</time>
      </trkpt>
      <trkpt lat="47.85473" lon="-2.94436">
        <ele>78.533669</ele>
        <time>2020-03-01T17:18:33.733Z</time>
      </trkpt>
      <trkpt lat="47.85447" lon="-2.94364">
        <ele>84.185486</ele>
        <time>2020-03-01T17:18:39.691Z</time>
      </trkpt>
      <trkpt lat="47.85401" lon="-2.943">
        <ele>86.389145</ele>
        <time>2020-03-01T17:18:46.696Z</time>
      </trkpt>
      <trkpt lat="47.85376" lon="-2.94258">
        <ele>86.185692</ele>
        <time>2020-03-01T17:18:51.698Z</time>
      </trkpt>
      <trkpt lat="47.8536" lon="-2.94211">
        <ele>85.739143</ele>
        <time>2020-03-01T17:18:56.708Z</time>
      </trkpt>
      <trkpt lat="47.85315" lon="-2.94155">
        <ele>86.489555</ele>
        <time>2020-03-01T17:19:03.692Z</time>
      </trkpt>
      <trkpt lat="47.85231" lon="-2.94126">
        <ele>88.833252</ele>
        <time>2020-03-01T17:19:11.704Z</time>
      </trkpt>
      <trkpt lat="47.85164" lon="-2.94102">
        <ele>92.064751</ele>
        <time>2020-03-01T17:19:17.720Z</time>
      </trkpt>
      <trkpt lat="47.85098" lon="-2.94082">
        <ele>96.709869</ele>
        <time>2020-03-01T17:19:23.718Z</time>
      </trkpt>
      <trkpt lat="47.85039" lon="-2.94077">
        <ele>99.362709</ele>
        <time>2020-03-01T17:19:29.701Z</time>
      </trkpt>
      <trkpt lat="47.84986" lon="-2.94072">
        <ele>101.51088</ele>
        <time>2020-03-01T17:19:35.680Z</time>
      </trkpt>
      <trkpt lat="47.84944" lon="-2.9406">
        <ele>102.525513</ele>
        <time>2020-03-01T17:19:40.692Z</time>
      </trkpt>
      <trkpt lat="47.84906" lon="-2.94013">
        <ele>103.952339</ele>
        <time>2020-03-01T17:19:46.688Z</time>
      </trkpt>
      <trkpt lat="47.8489" lon="-2.93973">
        <ele>104.591766</ele>
        <time>2020-03-01T17:19:51.701Z</time>
      </trkpt>
      <trkpt lat="47.84886" lon="-2.93904">
        <ele>103.791161</ele>
        <time>2020-03-01T17:19:57.688Z</time>
      </trkpt>
      <trkpt lat="47.8489" lon="-2.93809">
        <ele>101.439537</ele>
        <time>2020-03-01T17:20:04.671Z</time>
      </trkpt>
      <trkpt lat="47.84893" lon="-2.93745">
        <ele>99.17775</ele>
        <time>2020-03-01T17:20:09.696Z</time>
      </trkpt>
      <trkpt lat="47.84885" lon="-2.93706">
        <ele>97.174904</ele>
        <time>2020-03-01T17:20:16.700Z</time>
      </trkpt>
      <trkpt lat="47.84869" lon="-2.93698">
        <ele>96.604179</ele>
        <time>2020-03-01T17:20:21.727Z</time>
      </trkpt>
      <trkpt lat="47.84844" lon="-2.93689">
        <ele>95.380806</ele>
        <time>2020-03-01T17:20:27.678Z</time>
      </trkpt>
      <trkpt lat="47.84829" lon="-2.93684">
        <ele>94.670029</ele>
        <time>2020-03-01T17:20:34.676Z</time>
      </trkpt>
      <trkpt lat="47.84825" lon="-2.93682">
        <ele>95.792999</ele>
        <time>2020-03-01T17:20:40.675Z</time>
      </trkpt>
      <trkpt lat="47.8483" lon="-2.93676">
        <ele>95.42308</ele>
        <time>2020-03-01T17:20:52.669Z</time>
      </trkpt>
      <trkpt lat="47.84846" lon="-2.93676">
        <ele>95.695236</ele>
        <time>2020-03-01T17:20:57.696Z</time>
      </trkpt>
      <trkpt lat="47.84873" lon="-2.9369">
        <ele>96.287102</ele>
        <time>2020-03-01T17:21:03.682Z</time>
      </trkpt>
      <trkpt lat="47.84869" lon="-2.93688">
        <ele>96.881615</ele>
        <time>2020-03-01T17:21:31.919Z</time>
      </trkpt>
      <trkpt lat="47.84882" lon="-2.93695">
        <ele>97.378365</ele>
        <time>2020-03-01T17:21:37.837Z</time>
      </trkpt>
      <trkpt lat="47.84903" lon="-2.93749">
        <ele>99.877953</ele>
        <time>2020-03-01T17:21:45.275Z</time>
      </trkpt>
      <trkpt lat="47.84898" lon="-2.93818">
        <ele>101.732826</ele>
        <time>2020-03-01T17:21:50.286Z</time>
      </trkpt>
      <trkpt lat="47.8489" lon="-2.93887">
        <ele>103.410675</ele>
        <time>2020-03-01T17:21:55.344Z</time>
      </trkpt>
      <trkpt lat="47.84889" lon="-2.93962">
        <ele>104.879776</ele>
        <time>2020-03-01T17:22:01.296Z</time>
      </trkpt>
      <trkpt lat="47.84914" lon="-2.94029">
        <ele>104.248276</ele>
        <time>2020-03-01T17:22:08.297Z</time>
      </trkpt>
      <trkpt lat="47.84926" lon="-2.9406">
        <ele>103.566566</ele>
        <time>2020-03-01T17:22:16.292Z</time>
      </trkpt>
      <trkpt lat="47.84875" lon="-2.94076">
        <ele>105.532417</ele>
        <time>2020-03-01T17:22:23.288Z</time>
      </trkpt>
      <trkpt lat="47.84797" lon="-2.94082">
        <ele>109.886887</ele>
        <time>2020-03-01T17:22:31.293Z</time>
      </trkpt>
      <trkpt lat="47.84746" lon="-2.94091">
        <ele>115.285049</ele>
        <time>2020-03-01T17:22:36.302Z</time>
      </trkpt>
      <trkpt lat="47.84674" lon="-2.94112">
        <ele>122.265938</ele>
        <time>2020-03-01T17:22:43.288Z</time>
      </trkpt>
      <trkpt lat="47.8462" lon="-2.94131">
        <ele>125.035042</ele>
        <time>2020-03-01T17:22:48.316Z</time>
      </trkpt>
      <trkpt lat="47.84533" lon="-2.9416">
        <ele>128.541336</ele>
        <time>2020-03-01T17:22:56.275Z</time>
      </trkpt>
      <trkpt lat="47.84486" lon="-2.94177">
        <ele>127.484428</ele>
        <time>2020-03-01T17:23:01.317Z</time>
      </trkpt>
      <trkpt lat="47.84403" lon="-2.94204">
        <ele>122.823463</ele>
        <time>2020-03-01T17:23:09.294Z</time>
      </trkpt>
      <trkpt lat="47.84355" lon="-2.94222">
        <ele>119.55497</ele>
        <time>2020-03-01T17:23:15.337Z</time>
      </trkpt>
      <trkpt lat="47.8434" lon="-2.94228">
        <ele>119.06086</ele>
        <time>2020-03-01T17:23:21.273Z</time>
      </trkpt>
      <trkpt lat="47.84313" lon="-2.94241">
        <ele>117.618179</ele>
        <time>2020-03-01T17:23:26.281Z</time>
      </trkpt>
      <trkpt lat="47.8427" lon="-2.94251">
        <ele>115.776512</ele>
        <time>2020-03-01T17:23:33.307Z</time>
      </trkpt>
      <trkpt lat="47.84268" lon="-2.94267">
        <ele>116.349892</ele>
        <time>2020-03-01T17:23:38.939Z</time>
      </trkpt>
      <trkpt lat="47.84288" lon="-2.94317">
        <ele>117.837486</ele>
        <time>2020-03-01T17:23:44.274Z</time>
      </trkpt>
      <trkpt lat="47.84313" lon="-2.94374">
        <ele>120.123055</ele>
        <time>2020-03-01T17:23:49.304Z</time>
      </trkpt>
      <trkpt lat="47.84335" lon="-2.94427">
        <ele>121.576309</ele>
        <time>2020-03-01T17:23:54.774Z</time>
      </trkpt>
      <trkpt lat="47.84339" lon="-2.94471">
        <ele>123.972847</ele>
        <time>2020-03-01T17:24:01.725Z</time>
      </trkpt>
      <trkpt lat="47.8431" lon="-2.94528">
        <ele>125.655975</ele>
        <time>2020-03-01T17:24:06.752Z</time>
      </trkpt>
      <trkpt lat="47.84274" lon="-2.94605">
        <ele>128.470001</ele>
        <time>2020-03-01T17:24:11.786Z</time>
      </trkpt>
      <trkpt lat="47.84228" lon="-2.94706">
        <ele>131.476913</ele>
        <time>2020-03-01T17:24:17.752Z</time>
      </trkpt>
      <trkpt lat="47.84182" lon="-2.94803">
        <ele>131.059433</ele>
        <time>2020-03-01T17:24:23.756Z</time>
      </trkpt>
      <trkpt lat="47.8415" lon="-2.94868">
        <ele>130.96167</ele>
        <time>2020-03-01T17:24:29.763Z</time>
      </trkpt>
      <trkpt lat="47.84111" lon="-2.94952">
        <ele>132.203537</ele>
        <time>2020-03-01T17:24:35.753Z</time>
      </trkpt>
      <trkpt lat="47.84065" lon="-2.95048">
        <ele>132.288086</ele>
        <time>2020-03-01T17:24:41.718Z</time>
      </trkpt>
      <trkpt lat="47.84028" lon="-2.95125">
        <ele>133.455963</ele>
        <time>2020-03-01T17:24:47.198Z</time>
      </trkpt>
      <trkpt lat="47.83984" lon="-2.95219">
        <ele>134.996414</ele>
        <time>2020-03-01T17:24:53.124Z</time>
      </trkpt>
      <trkpt lat="47.83931" lon="-2.9533">
        <ele>137.18158</ele>
        <time>2020-03-01T17:25:00.128Z</time>
      </trkpt>
      <trkpt lat="47.83895" lon="-2.95404">
        <ele>137.651901</ele>
        <time>2020-03-01T17:25:05.133Z</time>
      </trkpt>
      <trkpt lat="47.83836" lon="-2.95534">
        <ele>134.573654</ele>
        <time>2020-03-01T17:25:13.109Z</time>
      </trkpt>
      <trkpt lat="47.83797" lon="-2.95618">
        <ele>134.811462</ele>
        <time>2020-03-01T17:25:18.123Z</time>
      </trkpt>
      <trkpt lat="47.83744" lon="-2.95731">
        <ele>135.519592</ele>
        <time>2020-03-01T17:25:25.175Z</time>
      </trkpt>
      <trkpt lat="47.83695" lon="-2.95836">
        <ele>135.865723</ele>
        <time>2020-03-01T17:25:32.117Z</time>
      </trkpt>
      <trkpt lat="47.83653" lon="-2.95922">
        <ele>136.431168</ele>
        <time>2020-03-01T17:25:38.112Z</time>
      </trkpt>
      <trkpt lat="47.83611" lon="-2.96008">
        <ele>138.320404</ele>
        <time>2020-03-01T17:25:44.137Z</time>
      </trkpt>
      <trkpt lat="47.83568" lon="-2.96096">
        <ele>139.940109</ele>
        <time>2020-03-01T17:25:50.095Z</time>
      </trkpt>
      <trkpt lat="47.83536" lon="-2.96164">
        <ele>139.274261</ele>
        <time>2020-03-01T17:25:55.112Z</time>
      </trkpt>
      <trkpt lat="47.83514" lon="-2.96211">
        <ele>138.172424</ele>
        <time>2020-03-01T17:26:01.108Z</time>
      </trkpt>
      <trkpt lat="47.8348" lon="-2.96247">
        <ele>139.057587</ele>
        <time>2020-03-01T17:26:08.081Z</time>
      </trkpt>
      <trkpt lat="47.8345" lon="-2.96277">
        <ele>140.019379</ele>
        <time>2020-03-01T17:26:13.098Z</time>
      </trkpt>
      <trkpt lat="47.8339" lon="-2.96336">
        <ele>140.426285</ele>
        <time>2020-03-01T17:26:21.111Z</time>
      </trkpt>
      <trkpt lat="47.83333" lon="-2.96398">
        <ele>143.348648</ele>
        <time>2020-03-01T17:26:28.108Z</time>
      </trkpt>
      <trkpt lat="47.83283" lon="-2.96448">
        <ele>144.899658</ele>
        <time>2020-03-01T17:26:34.112Z</time>
      </trkpt>
      <trkpt lat="47.83245" lon="-2.96489">
        <ele>145.377914</ele>
        <time>2020-03-01T17:26:39.133Z</time>
      </trkpt>
      <trkpt lat="47.83189" lon="-2.96545">
        <ele>144.537674</ele>
        <time>2020-03-01T17:26:46.090Z</time>
      </trkpt>
      <trkpt lat="47.83151" lon="-2.96586">
        <ele>144.075272</ele>
        <time>2020-03-01T17:26:51.094Z</time>
      </trkpt>
      <trkpt lat="47.83105" lon="-2.96633">
        <ele>143.412064</ele>
        <time>2020-03-01T17:26:58.072Z</time>
      </trkpt>
      <trkpt lat="47.83084" lon="-2.96659">
        <ele>143.779327</ele>
        <time>2020-03-01T17:27:03.083Z</time>
      </trkpt>
      <trkpt lat="47.83059" lon="-2.96689">
        <ele>143.264084</ele>
        <time>2020-03-01T17:27:08.096Z</time>
      </trkpt>
      <trkpt lat="47.83019" lon="-2.96733">
        <ele>141.736862</ele>
        <time>2020-03-01T17:27:14.123Z</time>
      </trkpt>
      <trkpt lat="47.82976" lon="-2.96776">
        <ele>141.673447</ele>
        <time>2020-03-01T17:27:20.110Z</time>
      </trkpt>
      <trkpt lat="47.82952" lon="-2.96815">
        <ele>142.447632</ele>
        <time>2020-03-01T17:27:26.116Z</time>
      </trkpt>
      <trkpt lat="47.8294" lon="-2.96862">
        <ele>143.1082</ele>
        <time>2020-03-01T17:27:32.093Z</time>
      </trkpt>
      <trkpt lat="47.82931" lon="-2.96904">
        <ele>143.488678</ele>
        <time>2020-03-01T17:27:37.106Z</time>
      </trkpt>
      <trkpt lat="47.82916" lon="-2.9697">
        <ele>143.250885</ele>
        <time>2020-03-01T17:27:44.080Z</time>
      </trkpt>
      <trkpt lat="47.82897" lon="-2.9702">
        <ele>142.968155</ele>
        <time>2020-03-01T17:27:49.092Z</time>
      </trkpt>
      <trkpt lat="47.82886" lon="-2.97042">
        <ele>142.254745</ele>
        <time>2020-03-01T17:27:59.092Z</time>
      </trkpt>
      <trkpt lat="47.82881" lon="-2.97051">
        <ele>142.289093</ele>
        <time>2020-03-01T17:28:04.124Z</time>
      </trkpt>
      <trkpt lat="47.82871" lon="-2.97062">
        <ele>141.237473</ele>
        <time>2020-03-01T17:28:09.279Z</time>
      </trkpt>
      <trkpt lat="47.82846" lon="-2.97089">
        <ele>139.942749</ele>
        <time>2020-03-01T17:28:15.100Z</time>
      </trkpt>
      <trkpt lat="47.82813" lon="-2.97129">
        <ele>138.148651</ele>
        <time>2020-03-01T17:28:22.059Z</time>
      </trkpt>
      <trkpt lat="47.82791" lon="-2.97154">
        <ele>136.280563</ele>
        <time>2020-03-01T17:28:27.092Z</time>
      </trkpt>
      <trkpt lat="47.82764" lon="-2.9718">
        <ele>135.062469</ele>
        <time>2020-03-01T17:28:32.095Z</time>
      </trkpt>
      <trkpt lat="47.82742" lon="-2.97202">
        <ele>133.049057</ele>
        <time>2020-03-01T17:28:37.165Z</time>
      </trkpt>
      <trkpt lat="47.82718" lon="-2.97229">
        <ele>130.594391</ele>
        <time>2020-03-01T17:28:43.095Z</time>
      </trkpt>
      <trkpt lat="47.827" lon="-2.97255">
        <ele>129.133209</ele>
        <time>2020-03-01T17:28:49.085Z</time>
      </trkpt>
      <trkpt lat="47.82691" lon="-2.97274">
        <ele>128.850494</ele>
        <time>2020-03-01T17:28:54.089Z</time>
      </trkpt>
      <trkpt lat="47.82687" lon="-2.97278">
        <ele>128.684021</ele>
        <time>2020-03-01T17:29:00.107Z</time>
      </trkpt>
      <trkpt lat="47.82683" lon="-2.97265">
        <ele>129.302322</ele>
        <time>2020-03-01T17:29:17.339Z</time>
      </trkpt>
      <trkpt lat="47.82688" lon="-2.97259">
        <ele>129.696014</ele>
        <time>2020-03-01T17:29:22.476Z</time>
      </trkpt>
      <trkpt lat="47.82699" lon="-2.9724">
        <ele>132.768982</ele>
        <time>2020-03-01T17:29:32.278Z</time>
      </trkpt>
      <trkpt lat="47.82709" lon="-2.97226">
        <ele>134.48645</ele>
        <time>2020-03-01T17:29:38.087Z</time>
      </trkpt>
      <trkpt lat="47.82721" lon="-2.97219">
        <ele>136.011047</ele>
        <time>2020-03-01T17:29:43.110Z</time>
      </trkpt>
      <trkpt lat="47.82773" lon="-2.97156">
        <ele>138.825073</ele>
        <time>2020-03-01T17:29:49.116Z</time>
      </trkpt>
      <trkpt lat="47.82851" lon="-2.97067">
        <ele>139.958603</ele>
        <time>2020-03-01T17:29:55.198Z</time>
      </trkpt>
      <trkpt lat="47.82867" lon="-2.97049">
        <ele>140.99173</ele>
        <time>2020-03-01T17:30:01.097Z</time>
      </trkpt>
      <trkpt lat="47.82867" lon="-2.97051">
        <ele>141.588882</ele>
        <time>2020-03-01T17:30:07.083Z</time>
      </trkpt>
      <trkpt lat="47.82898" lon="-2.97076">
        <ele>142.19133</ele>
        <time>2020-03-01T17:30:13.073Z</time>
      </trkpt>
      <trkpt lat="47.82939" lon="-2.97136">
        <ele>142.162262</ele>
        <time>2020-03-01T17:30:18.084Z</time>
      </trkpt>
      <trkpt lat="47.82986" lon="-2.97212">
        <ele>142.299667</ele>
        <time>2020-03-01T17:30:23.107Z</time>
      </trkpt>
      <trkpt lat="47.8306" lon="-2.97337">
        <ele>141.731567</ele>
        <time>2020-03-01T17:30:30.066Z</time>
      </trkpt>
      <trkpt lat="47.83131" lon="-2.97456">
        <ele>139.192352</ele>
        <time>2020-03-01T17:30:36.065Z</time>
      </trkpt>
      <trkpt lat="47.83194" lon="-2.97545">
        <ele>136.410034</ele>
        <time>2020-03-01T17:30:41.082Z</time>
      </trkpt>
      <trkpt lat="47.83269" lon="-2.97631">
        <ele>133.197021</ele>
        <time>2020-03-01T17:30:47.064Z</time>
      </trkpt>
      <trkpt lat="47.83314" lon="-2.97726">
        <ele>128.536057</ele>
        <time>2020-03-01T17:30:52.065Z</time>
      </trkpt>
      <trkpt lat="47.83341" lon="-2.97789">
        <ele>126.551712</ele>
        <time>2020-03-01T17:30:57.084Z</time>
      </trkpt>
      <trkpt lat="47.83337" lon="-2.97816">
        <ele>126.110451</ele>
        <time>2020-03-01T17:31:03.082Z</time>
      </trkpt>
      <trkpt lat="47.8329" lon="-2.97856">
        <ele>123.164314</ele>
        <time>2020-03-01T17:31:09.090Z</time>
      </trkpt>
      <trkpt lat="47.83239" lon="-2.97914">
        <ele>120.709641</ele>
        <time>2020-03-01T17:31:16.057Z</time>
      </trkpt>
      <trkpt lat="47.832" lon="-2.97958">
        <ele>119.454559</ele>
        <time>2020-03-01T17:31:21.070Z</time>
      </trkpt>
      <trkpt lat="47.83146" lon="-2.98006">
        <ele>118.688301</ele>
        <time>2020-03-01T17:31:26.072Z</time>
      </trkpt>
      <trkpt lat="47.83092" lon="-2.98061">
        <ele>120.218178</ele>
        <time>2020-03-01T17:31:31.087Z</time>
      </trkpt>
      <trkpt lat="47.83001" lon="-2.98155">
        <ele>125.402321</ele>
        <time>2020-03-01T17:31:39.080Z</time>
      </trkpt>
      <trkpt lat="47.82926" lon="-2.98227">
        <ele>134.967346</ele>
        <time>2020-03-01T17:31:46.099Z</time>
      </trkpt>
      <trkpt lat="47.82865" lon="-2.98266">
        <ele>137.659821</ele>
        <time>2020-03-01T17:31:52.078Z</time>
      </trkpt>
      <trkpt lat="47.82805" lon="-2.98283">
        <ele>133.891953</ele>
        <time>2020-03-01T17:31:57.096Z</time>
      </trkpt>
      <trkpt lat="47.82727" lon="-2.98303">
        <ele>132.80069</ele>
        <time>2020-03-01T17:32:03.101Z</time>
      </trkpt>
      <trkpt lat="47.82655" lon="-2.9832">
        <ele>134.209015</ele>
        <time>2020-03-01T17:32:09.087Z</time>
      </trkpt>
      <trkpt lat="47.82598" lon="-2.98334">
        <ele>135.070404</ele>
        <time>2020-03-01T17:32:14.094Z</time>
      </trkpt>
      <trkpt lat="47.82546" lon="-2.98348">
        <ele>135.223648</ele>
        <time>2020-03-01T17:32:19.096Z</time>
      </trkpt>
      <trkpt lat="47.82516" lon="-2.98358">
        <ele>135.456177</ele>
        <time>2020-03-01T17:32:24.115Z</time>
      </trkpt>
      <trkpt lat="47.82509" lon="-2.98442">
        <ele>137.773453</ele>
        <time>2020-03-01T17:32:32.086Z</time>
      </trkpt>
      <trkpt lat="47.82495" lon="-2.98526">
        <ele>139.372025</ele>
        <time>2020-03-01T17:32:38.097Z</time>
      </trkpt>
      <trkpt lat="47.82484" lon="-2.9859">
        <ele>140.605957</ele>
        <time>2020-03-01T17:32:43.109Z</time>
      </trkpt>
      <trkpt lat="47.82492" lon="-2.98665">
        <ele>141.422424</ele>
        <time>2020-03-01T17:32:49.088Z</time>
      </trkpt>
      <trkpt lat="47.82486" lon="-2.98725">
        <ele>140.970596</ele>
        <time>2020-03-01T17:32:54.100Z</time>
      </trkpt>
      <trkpt lat="47.82478" lon="-2.98788">
        <ele>140.484421</ele>
        <time>2020-03-01T17:32:59.109Z</time>
      </trkpt>
      <trkpt lat="47.82467" lon="-2.98858">
        <ele>139.982391</ele>
        <time>2020-03-01T17:33:05.096Z</time>
      </trkpt>
      <trkpt lat="47.82453" lon="-2.98912">
        <ele>140.032593</ele>
        <time>2020-03-01T17:33:10.098Z</time>
      </trkpt>
      <trkpt lat="47.82445" lon="-2.98959">
        <ele>139.377304</ele>
        <time>2020-03-01T17:33:15.103Z</time>
      </trkpt>
      <trkpt lat="47.82483" lon="-2.98996">
        <ele>138.439301</ele>
        <time>2020-03-01T17:33:22.088Z</time>
      </trkpt>
      <trkpt lat="47.82521" lon="-2.98999">
        <ele>137.868561</ele>
        <time>2020-03-01T17:33:27.148Z</time>
      </trkpt>
      <trkpt lat="47.82567" lon="-2.99007">
        <ele>137.395599</ele>
        <time>2020-03-01T17:33:33.100Z</time>
      </trkpt>
      <trkpt lat="47.82605" lon="-2.9903">
        <ele>138.119583</ele>
        <time>2020-03-01T17:33:38.112Z</time>
      </trkpt>
      <trkpt lat="47.82649" lon="-2.99079">
        <ele>139.564911</ele>
        <time>2020-03-01T17:33:44.107Z</time>
      </trkpt>
      <trkpt lat="47.8269" lon="-2.99136">
        <ele>139.958603</ele>
        <time>2020-03-01T17:33:50.105Z</time>
      </trkpt>
      <trkpt lat="47.82729" lon="-2.99184">
        <ele>140.764496</ele>
        <time>2020-03-01T17:33:55.136Z</time>
      </trkpt>
      <trkpt lat="47.82772" lon="-2.99249">
        <ele>141.388077</ele>
        <time>2020-03-01T17:34:01.114Z</time>
      </trkpt>
      <trkpt lat="47.82835" lon="-2.99293">
        <ele>142.965515</ele>
        <time>2020-03-01T17:34:08.129Z</time>
      </trkpt>
      <trkpt lat="47.82889" lon="-2.9935">
        <ele>144.149246</ele>
        <time>2020-03-01T17:34:15.112Z</time>
      </trkpt>
      <trkpt lat="47.82928" lon="-2.99384">
        <ele>145.256363</ele>
        <time>2020-03-01T17:34:20.132Z</time>
      </trkpt>
      <trkpt lat="47.82975" lon="-2.99408">
        <ele>147.460022</ele>
        <time>2020-03-01T17:34:26.130Z</time>
      </trkpt>
      <trkpt lat="47.83018" lon="-2.99419">
        <ele>145.961853</ele>
        <time>2020-03-01T17:34:32.134Z</time>
      </trkpt>
      <trkpt lat="47.83047" lon="-2.99425">
        <ele>143.678925</ele>
        <time>2020-03-01T17:34:38.144Z</time>
      </trkpt>
      <trkpt lat="47.83048" lon="-2.99425">
        <ele>143.589096</ele>
        <time>2020-03-01T17:34:47.147Z</time>
      </trkpt>
      <trkpt lat="47.8306" lon="-2.99445">
        <ele>143.071198</ele>
        <time>2020-03-01T17:34:52.719Z</time>
      </trkpt>
      <trkpt lat="47.83062" lon="-2.99495">
        <ele>141.834625</ele>
        <time>2020-03-01T17:34:58.104Z</time>
      </trkpt>
      <trkpt lat="47.83058" lon="-2.99545">
        <ele>140.880753</ele>
        <time>2020-03-01T17:35:03.117Z</time>
      </trkpt>
      <trkpt lat="47.83055" lon="-2.99617">
        <ele>140.090714</ele>
        <time>2020-03-01T17:35:09.121Z</time>
      </trkpt>
      <trkpt lat="47.83067" lon="-2.99696">
        <ele>138.899048</ele>
        <time>2020-03-01T17:35:15.150Z</time>
      </trkpt>
      <trkpt lat="47.8308" lon="-2.99776">
        <ele>137.710037</ele>
        <time>2020-03-01T17:35:21.169Z</time>
      </trkpt>
      <trkpt lat="47.83094" lon="-2.99863">
        <ele>137.461655</ele>
        <time>2020-03-01T17:35:29.122Z</time>
      </trkpt>
      <trkpt lat="47.83098" lon="-2.99903">
        <ele>137.876495</ele>
        <time>2020-03-01T17:35:34.136Z</time>
      </trkpt>
      <trkpt lat="47.83097" lon="-2.99954">
        <ele>137.931976</ele>
        <time>2020-03-01T17:35:41.146Z</time>
      </trkpt>
      <trkpt lat="47.83099" lon="-3.00039">
        <ele>136.180161</ele>
        <time>2020-03-01T17:35:48.083Z</time>
      </trkpt>
      <trkpt lat="47.83106" lon="-3.00106">
        <ele>134.642349</ele>
        <time>2020-03-01T17:35:53.141Z</time>
      </trkpt>
      <trkpt lat="47.8311" lon="-3.00148">
        <ele>133.226089</ele>
        <time>2020-03-01T17:35:58.145Z</time>
      </trkpt>
      <trkpt lat="47.83122" lon="-3.00156">
        <ele>133.257797</ele>
        <time>2020-03-01T17:36:04.105Z</time>
      </trkpt>
      <trkpt lat="47.83145" lon="-3.00156">
        <ele>134.269791</ele>
        <time>2020-03-01T17:36:09.148Z</time>
      </trkpt>
      <trkpt lat="47.83167" lon="-3.00151">
        <ele>134.592148</ele>
        <time>2020-03-01T17:36:14.652Z</time>
      </trkpt>
      <trkpt lat="47.83198" lon="-3.00142">
        <ele>136.256775</ele>
        <time>2020-03-01T17:36:20.133Z</time>
      </trkpt>
      <trkpt lat="47.8324" lon="-3.00128">
        <ele>137.8078</ele>
        <time>2020-03-01T17:36:26.127Z</time>
      </trkpt>
      <trkpt lat="47.83273" lon="-3.00103">
        <ele>138.711456</ele>
        <time>2020-03-01T17:36:32.097Z</time>
      </trkpt>
      <trkpt lat="47.83299" lon="-3.00109">
        <ele>138.906982</ele>
        <time>2020-03-01T17:36:37.114Z</time>
      </trkpt>
      <trkpt lat="47.83342" lon="-3.00122">
        <ele>137.609619</ele>
        <time>2020-03-01T17:36:43.132Z</time>
      </trkpt>
      <trkpt lat="47.8338" lon="-3.00126">
        <ele>136.769379</ele>
        <time>2020-03-01T17:36:49.096Z</time>
      </trkpt>
      <trkpt lat="47.83405" lon="-3.00117">
        <ele>136.410034</ele>
        <time>2020-03-01T17:36:54.114Z</time>
      </trkpt>
      <trkpt lat="47.83436" lon="-3.00108">
        <ele>135.506378</ele>
        <time>2020-03-01T17:37:00.094Z</time>
      </trkpt>
      <trkpt lat="47.83455" lon="-3.00127">
        <ele>135.638489</ele>
        <time>2020-03-01T17:37:06.142Z</time>
      </trkpt>
      <trkpt lat="47.83491" lon="-3.00113">
        <ele>136.222427</ele>
        <time>2020-03-01T17:37:12.107Z</time>
      </trkpt>
      <trkpt lat="47.83558" lon="-3.00089">
        <ele>137.466949</ele>
        <time>2020-03-01T17:37:18.084Z</time>
      </trkpt>
      <trkpt lat="47.836" lon="-3.00078">
        <ele>138.492142</ele>
        <time>2020-03-01T17:37:23.155Z</time>
      </trkpt>
      <trkpt lat="47.83599" lon="-3.00056">
        <ele>138.706161</ele>
        <time>2020-03-01T17:37:30.135Z</time>
      </trkpt>
      <trkpt lat="47.83601" lon="-3.00048">
        <ele>138.320404</ele>
        <time>2020-03-01T17:37:52.078Z</time>
      </trkpt>
      <trkpt lat="47.83599" lon="-3.0005">
        <ele>138.085236</ele>
        <time>2020-03-01T17:38:32.915Z</time>
      </trkpt>
      <trkpt lat="47.83601" lon="-3.00047">
        <ele>137.897629</ele>
        <time>2020-03-01T17:38:48.577Z</time>
      </trkpt>
    </trkseg>
  </trk>
</gpx>